Главная страница
METAR-TAF:

METAR-TAF

Аэропорты :

Борден (авиабаза)

Borden, Онтарио, Канада

широта: 44-15N, долгота: 079-55W, высота над уровнем моря: 223 м

Текущие метеонаблюдения

Эта сводка был подготовлена 9 минут назад, в 22:34 UTC
Ветер 3 Узел от южный
Температура -2°C
Влажность 100%
Давление 1014 hPa
Видимость: 3.6 км
ясное небо

METAR: CYBN 162234Z AUTO 18003KT 2 1/4SM CLR M02/M02 A2994 RMK VSBY VRBL 1.4V6.0

Время: 17:43 (22:43 UTC)


TAF: отсутствует

Метеонаблюдения и прогнозы для более 4000 аэропортов (сводки METAR и TAF).

Имеющиеся станции представлены на карте желтыми и красными точками.

Чтобы увидеть название станции, наведите на нее мышь.

Затем щелкните, чтобы увидеть метеонаблюдения и метеопрогнозы.

Управление картой: чтобы увеличить масштаб, щелкните зеленые кнопки с черным крестиком; чтобы уменьшить масштаб, щелкните зеленую кнопку с тире; для просмотра соседних карт щелкайте зеленые стрелки.


METAR-TAF: